Time;durP1;ratioP1;P1;durP2;ratioP2;P2;SDS_P1;SDS_P2;PMS_P1;PMS_P2;Temp;Humidity;BMP_temperature;BMP_pressure;BME280_temperature;BME280_humidity;BME280_pressure;Samples;Min_cycle;Max_cycle;Signal;HPM_P1;HPM_P2
2023/12/26 00:02:18;;;;;;;0.73;0.10;;;11.70;99.90;;;;;;5045138;28;20036;-85
2023/12/26 00:04:44;;;;;;;0.65;0.08;;;11.70;99.90;;;;;;5044407;28;20053;-87
2023/12/26 00:07:09;;;;;;;0.98;0.20;;;11.70;99.90;;;;;;5045249;28;20036;-85
2023/12/26 00:09:42;;;;;;;0.80;0.10;;;11.70;99.90;;;;;;5046555;28;20061;-83
2023/12/26 00:12:08;;;;;;;;;;;11.70;99.90;;;;;;5046866;28;20061;-86
2023/12/26 00:14:33;;;;;;;1.30;0.10;;;11.70;99.90;;;;;;5041879;28;19971;-84
2023/12/26 00:16:59;;;;;;;0.95;0.10;;;11.60;99.90;;;;;;5038575;28;20040;-85
2023/12/26 00:19:25;;;;;;;1.83;0.20;;;11.60;99.90;;;;;;5038901;28;20033;-84
2023/12/26 00:21:50;;;;;;;1.25;0.20;;;11.60;99.90;;;;;;5037262;28;20471;-86
2023/12/26 00:24:16;;;;;;;1.95;0.30;;;11.60;99.90;;;;;;5037820;28;20083;-85
2023/12/26 00:26:42;;;;;;;0.88;0.20;;;11.60;99.90;;;;;;5038535;28;20029;-85
2023/12/26 00:29:08;;;;;;;1.15;0.30;;;11.60;99.90;;;;;;5035718;28;20034;-84
2023/12/26 00:31:38;;;;;;;1.73;0.30;;;11.60;99.90;;;;;;5020255;28;20030;-85
2023/12/26 00:34:03;;;;;;;1.98;0.30;;;11.60;99.90;;;;;;5037959;28;20036;-85
2023/12/26 00:36:29;;;;;;;1.05;0.30;;;11.60;99.90;;;;;;5038103;28;20030;-86
2023/12/26 00:38:55;;;;;;;0.95;0.10;;;11.60;99.90;;;;;;5024899;28;20061;-84
2023/12/26 00:41:21;;;;;;;2.25;0.20;;;11.50;99.90;;;;;;5047139;28;20105;-85
2023/12/26 00:43:46;;;;;;;1.23;0.10;;;11.60;99.90;;;;;;5044292;28;20187;-84
2023/12/26 00:46:12;;;;;;;2.65;0.20;;;11.60;99.90;;;;;;5040520;28;20045;-83
2023/12/26 00:48:38;;;;;;;1.05;0.15;;;11.50;99.90;;;;;;5038149;28;20036;-82
2023/12/26 00:51:04;;;;;;;1.75;0.30;;;11.50;99.90;;;;;;5041368;28;20077;-80
2023/12/26 00:53:30;;;;;;;3.13;0.22;;;11.50;99.90;;;;;;5008158;28;20390;-83
2023/12/26 00:55:55;;;;;;;1.35;0.10;;;11.50;99.90;;;;;;5021159;28;20113;-82
2023/12/26 00:58:21;;;;;;;0.40;0.00;;;11.50;99.90;;;;;;5038230;28;20529;-82
2023/12/26 01:00:47;;;;;;;0.85;0.00;;;11.50;99.90;;;;;;5038419;28;20514;-83
2023/12/26 01:03:13;;;;;;;2.17;0.10;;;11.50;99.90;;;;;;5037247;28;20439;-82
2023/12/26 01:05:39;;;;;;;1.00;0.10;;;11.50;99.90;;;;;;5038352;28;20061;-82
2023/12/26 01:08:05;;;;;;;0.65;0.20;;;11.40;99.90;;;;;;5022354;28;20034;-83
2023/12/26 01:10:31;;;;;;;1.73;0.10;;;11.40;99.90;;;;;;5022048;28;20153;-84
2023/12/26 01:12:57;;;;;;;1.17;0.10;;;11.40;99.90;;;;;;5039000;28;20594;-85
2023/12/26 01:15:22;;;;;;;3.55;0.35;;;11.40;99.90;;;;;;5039789;28;20026;-84
2023/12/26 01:17:48;;;;;;;3.95;0.50;;;11.50;99.90;;;;;;5038516;28;20017;-84
2023/12/26 01:20:14;;;;;;;3.47;0.65;;;11.40;99.90;;;;;;5035949;28;20489;-83
2023/12/26 01:22:40;;;;;;;2.30;0.32;;;11.40;99.90;;;;;;5035765;28;20029;-82
2023/12/26 01:25:05;;;;;;;2.83;0.70;;;11.40;99.90;;;;;;5033090;28;20395;-84
2023/12/26 01:27:33;;;;;;;2.92;0.80;;;11.40;99.90;;;;;;5036030;28;20498;-83
2023/12/26 01:30:01;;;;;;;4.18;0.73;;;11.40;99.90;;;;;;5035277;28;20038;-83
2023/12/26 01:32:27;;;;;;;3.08;0.40;;;11.40;99.90;;;;;;5039275;28;20037;-83
2023/12/26 01:34:53;;;;;;;3.30;0.40;;;11.40;99.90;;;;;;5038172;28;20026;-83
2023/12/26 01:37:18;;;;;;;1.48;0.30;;;11.50;99.90;;;;;;5023165;28;20493;-83
2023/12/26 01:39:44;;;;;;;2.90;0.28;;;11.40;99.90;;;;;;5022580;28;20064;-83
2023/12/26 01:42:10;;;;;;;1.92;0.32;;;11.40;99.90;;;;;;5042382;28;20029;-84
2023/12/26 01:44:35;;;;;;;2.92;0.30;;;11.50;99.90;;;;;;5026577;28;20034;-84
2023/12/26 01:47:03;;;;;;;1.77;0.30;;;11.50;99.90;;;;;;5042436;28;20026;-86
2023/12/26 01:49:29;;;;;;;2.05;0.20;;;11.50;99.90;;;;;;5039203;28;20057;-86
2023/12/26 01:51:55;;;;;;;2.22;0.40;;;11.50;99.90;;;;;;5039794;28;20053;-83
2023/12/26 01:54:28;;;;;;;2.28;0.40;;;11.50;99.90;;;;;;5036006;28;20041;-81
2023/12/26 01:56:54;;;;;;;0.88;0.20;;;11.40;99.90;;;;;;5036612;28;20033;-83
2023/12/26 01:59:20;;;;;;;2.55;0.32;;;11.40;99.90;;;;;;5036186;28;20513;-82
2023/12/26 02:01:46;;;;;;;2.13;0.30;;;11.40;99.90;;;;;;5038589;28;20080;-83
2023/12/26 02:04:12;;;;;;;2.22;0.30;;;11.40;99.90;;;;;;5039352;28;20038;-84
2023/12/26 02:06:38;;;;;;;1.05;0.20;;;11.40;99.90;;;;;;5040682;28;20013;-82
2023/12/26 02:09:05;;;;;;;2.17;0.40;;;11.40;99.90;;;;;;5039085;28;20137;-83
2023/12/26 02:11:32;;;;;;;2.17;0.50;;;11.50;99.90;;;;;;5043821;28;20037;-84
2023/12/26 02:13:58;;;;;;;1.67;0.35;;;11.50;99.90;;;;;;5047982;28;20025;-86
2023/12/26 02:16:25;;;;;;;1.88;0.38;;;11.50;99.90;;;;;;5047933;28;20085;-84
2023/12/26 02:18:51;;;;;;;2.97;0.30;;;11.50;99.90;;;;;;5028609;28;20037;-84
2023/12/26 02:21:17;;;;;;;2.38;0.38;;;11.40;99.90;;;;;;5052158;28;20081;-86
2023/12/26 02:23:45;;;;;;;2.58;0.30;;;11.50;99.90;;;;;;5051491;28;20029;-84
2023/12/26 02:26:11;;;;;;;1.58;0.20;;;11.40;99.90;;;;;;5051506;28;20044;-84
2023/12/26 02:28:38;;;;;;;1.45;0.30;;;11.50;99.90;;;;;;5051616;28;20061;-83
2023/12/26 02:31:05;;;;;;;1.92;0.38;;;11.50;99.90;;;;;;5046172;28;20120;-85
2023/12/26 02:33:31;;;;;;;1.13;0.30;;;11.50;99.90;;;;;;5040401;28;20029;-83
2023/12/26 02:35:59;;;;;;;1.20;0.43;;;11.50;99.90;;;;;;5038931;28;20076;-82
2023/12/26 02:38:25;;;;;;;2.17;0.38;;;11.50;99.90;;;;;;5038417;28;20476;-83
2023/12/26 02:40:52;;;;;;;2.83;0.77;;;11.40;99.90;;;;;;5040961;28;20030;-82
2023/12/26 02:43:22;;;;;;;2.80;0.40;;;11.40;99.90;;;;;;5037570;28;20075;-84
2023/12/26 02:45:49;;;;;;;1.50;0.40;;;11.40;99.90;;;;;;5036587;28;20029;-83
2023/12/26 02:48:16;;;;;;;2.17;0.50;;;11.50;99.90;;;;;;5037178;28;20033;-83
2023/12/26 02:50:42;;;;;;;2.80;0.52;;;11.50;99.90;;;;;;5031545;28;20137;-83
2023/12/26 02:53:08;;;;;;;3.45;0.50;;;11.60;99.90;;;;;;5046291;28;20471;-83
2023/12/26 02:55:34;;;;;;;2.97;0.40;;;11.60;99.90;;;;;;5026602;28;20030;-82
2023/12/26 02:57:59;;;;;;;2.80;0.85;;;11.60;99.90;;;;;;5042696;28;20067;-83
2023/12/26 03:00:25;;;;;;;3.75;0.70;;;11.60;99.90;;;;;;5022775;28;20040;-83
2023/12/26 03:02:51;;;;;;;6.40;0.95;;;11.60;99.90;;;;;;5036264;28;20030;-84
2023/12/26 03:05:16;;;;;;;4.97;1.33;;;11.60;99.90;;;;;;5039691;28;20038;-84
2023/12/26 03:07:42;;;;;;;7.88;0.90;;;11.60;99.90;;;;;;5041056;28;20099;-83
2023/12/26 03:10:09;;;;;;;7.45;0.95;;;11.60;99.90;;;;;;5036009;28;20057;-82
2023/12/26 03:12:35;;;;;;;7.50;1.10;;;11.60;99.90;;;;;;5038532;28;20028;-83
2023/12/26 03:15:01;;;;;;;7.75;0.95;;;11.60;99.90;;;;;;5037076;28;20029;-83
2023/12/26 03:17:27;;;;;;;6.80;0.70;;;11.60;99.90;;;;;;5017558;28;20049;-82
2023/12/26 03:19:53;;;;;;;10.98;0.90;;;11.60;99.90;;;;;;5033684;28;20037;-82
2023/12/26 03:22:20;;;;;;;7.63;1.10;;;11.60;99.90;;;;;;5015414;28;20033;-81
2023/12/26 03:24:46;;;;;;;8.57;0.88;;;11.60;99.90;;;;;;5033537;28;20081;-83
2023/12/26 03:27:11;;;;;;;9.73;1.27;;;11.60;99.90;;;;;;5032573;28;20033;-82
2023/12/26 03:29:38;;;;;;;12.52;0.93;;;11.50;99.90;;;;;;5033653;28;20132;-83
2023/12/26 03:32:04;;;;;;;10.32;0.95;;;11.50;99.90;;;;;;5033914;28;20059;-81
2023/12/26 03:34:30;;;;;;;9.05;0.73;;;11.50;99.90;;;;;;5033458;28;20053;-80
2023/12/26 03:36:55;;;;;;;5.15;0.70;;;11.50;99.90;;;;;;5032066;28;20029;-82
2023/12/26 03:39:21;;;;;;;8.43;0.93;;;11.50;99.90;;;;;;5032866;28;20034;-79
2023/12/26 03:41:48;;;;;;;9.98;0.80;;;11.50;99.90;;;;;;5031251;28;20033;-81
2023/12/26 03:44:18;;;;;;;11.43;0.70;;;11.50;99.90;;;;;;5032802;28;20112;-81
2023/12/26 03:46:44;;;;;;;9.70;0.65;;;11.60;99.90;;;;;;5031061;28;20052;-81
2023/12/26 03:49:10;;;;;;;6.40;0.70;;;11.50;99.90;;;;;;5035108;28;20114;-80
2023/12/26 03:51:36;;;;;;;6.55;0.47;;;11.50;99.90;;;;;;5036349;28;20097;-80
2023/12/26 03:54:03;;;;;;;6.47;0.80;;;11.50;99.90;;;;;;5034694;28;20116;-80
2023/12/26 03:56:33;;;;;;;10.52;0.80;;;11.50;99.90;;;;;;5018240;28;20037;-80
2023/12/26 03:58:59;;;;;;;7.72;1.10;;;11.50;99.90;;;;;;5018751;28;20389;-81
2023/12/26 04:01:26;;;;;;;10.43;0.70;;;11.50;99.90;;;;;;5035977;28;20105;-80
2023/12/26 04:03:52;;;;;;;4.95;0.60;;;11.50;99.90;;;;;;5034648;28;20112;-80
2023/12/26 04:06:18;;;;;;;6.47;0.65;;;11.40;99.90;;;;;;5035645;28;20037;-78
2023/12/26 04:08:43;;;;;;;6.85;0.57;;;11.40;99.90;;;;;;5035736;28;20056;-78
2023/12/26 04:11:10;;;;;;;9.23;0.68;;;11.40;99.90;;;;;;5034366;28;20057;-79
2023/12/26 04:13:36;;;;;;;5.95;0.50;;;11.40;99.90;;;;;;5034743;28;20041;-78
2023/12/26 04:16:02;;;;;;;9.65;1.10;;;11.40;99.90;;;;;;5034166;28;20040;-78
2023/12/26 04:18:28;;;;;;;8.30;0.85;;;11.40;99.90;;;;;;5035366;28;20025;-79
2023/12/26 04:20:54;;;;;;;5.45;0.60;;;11.40;99.90;;;;;;5034265;28;20029;-79
2023/12/26 04:23:20;;;;;;;6.90;0.50;;;11.40;99.90;;;;;;5034734;28;20032;-79
2023/12/26 04:25:46;;;;;;;5.72;0.68;;;11.30;99.90;;;;;;5034265;28;20399;-78
2023/12/26 04:28:12;;;;;;;8.02;1.48;;;11.30;99.90;;;;;;5034073;28;20040;-78
2023/12/26 04:30:39;;;;;;;5.68;0.35;;;11.20;99.90;;;;;;5035168;28;20042;-78
2023/12/26 04:33:05;;;;;;;6.90;0.45;;;11.20;99.90;;;;;;5035118;28;20032;-79
2023/12/26 04:35:31;;;;;;;7.70;0.65;;;11.20;99.90;;;;;;5034109;28;20137;-78
2023/12/26 04:37:57;;;;;;;6.53;0.50;;;11.20;99.90;;;;;;5035506;28;20480;-79
2023/12/26 04:40:23;;;;;;;3.83;0.40;;;11.20;99.90;;;;;;5035347;28;20025;-80
2023/12/26 04:42:48;;;;;;;5.15;0.73;;;11.10;99.90;;;;;;5033435;28;20026;-80
2023/12/26 04:45:14;;;;;;;3.50;0.40;;;11.10;99.90;;;;;;5033843;28;20034;-79
2023/12/26 04:47:40;;;;;;;6.97;0.50;;;11.00;99.90;;;;;;5033542;28;20025;-79
2023/12/26 04:50:06;;;;;;;7.60;0.40;;;10.90;99.90;;;;;;5033619;28;20087;-79
2023/12/26 04:52:31;;;;;;;4.93;0.40;;;10.90;99.90;;;;;;5033589;28;20490;-79
2023/12/26 04:54:57;;;;;;;7.43;0.85;;;10.90;99.90;;;;;;5033419;28;20079;-79
2023/12/26 04:57:23;;;;;;;7.00;0.30;;;10.90;99.90;;;;;;5033550;28;20030;-80
2023/12/26 04:59:48;;;;;;;7.90;0.52;;;10.80;99.90;;;;;;5033190;28;20068;-80
2023/12/26 05:02:14;;;;;;;5.88;0.65;;;10.80;99.90;;;;;;5017720;28;20083;-80
2023/12/26 05:04:40;;;;;;;7.53;0.50;;;10.80;99.90;;;;;;5016871;28;20036;-81
2023/12/26 05:07:08;;;;;;;9.05;0.40;;;10.80;99.90;;;;;;5033664;28;20063;-81
2023/12/26 05:09:34;;;;;;;9.73;1.02;;;10.70;99.90;;;;;;5032783;28;20050;-80
2023/12/26 05:11:59;;;;;;;6.75;0.47;;;10.70;99.90;;;;;;5032946;28;20032;-80
2023/12/26 05:14:25;;;;;;;8.15;0.50;;;10.80;99.90;;;;;;5017202;28;20029;-80
2023/12/26 05:16:51;;;;;;;6.03;0.52;;;10.70;99.90;;;;;;5000853;28;20044;-80
2023/12/26 05:19:17;;;;;;;3.17;0.30;;;10.70;99.90;;;;;;5033223;28;20044;-80
2023/12/26 05:21:43;;;;;;;6.63;0.60;;;10.70;99.90;;;;;;5033601;28;20041;-81
2023/12/26 05:24:09;;;;;;;7.10;0.70;;;10.70;99.90;;;;;;5017115;28;20038;-80
2023/12/26 05:26:40;;;;;;;7.13;0.45;;;10.60;99.90;;;;;;5033190;28;20025;-82
2023/12/26 05:29:05;;;;;;;7.18;1.20;;;10.70;99.90;;;;;;5032812;28;20124;-80
2023/12/26 05:31:31;;;;;;;6.45;0.50;;;10.60;99.90;;;;;;5034162;28;20142;-80
2023/12/26 05:33:58;;;;;;;10.98;1.20;;;10.60;99.90;;;;;;5034225;28;20037;-80
2023/12/26 05:36:24;;;;;;;8.82;0.68;;;10.60;99.90;;;;;;5016797;28;20029;-80
2023/12/26 05:38:50;;;;;;;4.50;0.32;;;10.60;99.90;;;;;;5032552;28;20060;-80
2023/12/26 05:41:15;;;;;;;10.63;1.10;;;10.60;99.90;;;;;;5033996;28;20030;-81
2023/12/26 05:43:41;;;;;;;6.90;0.68;;;10.60;99.90;;;;;;5034201;28;20025;-79
2023/12/26 05:46:07;;;;;;;9.70;0.75;;;10.60;99.90;;;;;;5034033;28;20360;-79
2023/12/26 05:48:33;;;;;;;11.25;1.25;;;10.60;99.90;;;;;;5032926;28;20037;-80
2023/12/26 05:50:59;;;;;;;9.30;1.00;;;10.50;99.90;;;;;;5033852;28;20123;-79
2023/12/26 05:53:29;;;;;;;5.40;0.52;;;10.50;99.90;;;;;;5034208;28;20025;-80
2023/12/26 05:55:55;;;;;;;8.07;0.77;;;10.50;99.90;;;;;;5036213;28;20061;-79
2023/12/26 05:58:20;;;;;;;4.80;0.47;;;10.50;99.90;;;;;;5033471;28;20041;-79
2023/12/26 06:00:46;;;;;;;4.32;0.43;;;10.40;99.90;;;;;;5035224;28;20081;-80
2023/12/26 06:03:12;;;;;;;6.78;0.70;;;10.40;99.90;;;;;;5033289;28;20499;-81
2023/12/26 06:05:37;;;;;;;7.78;0.70;;;10.40;99.90;;;;;;5034757;28;20030;-81
2023/12/26 06:08:03;;;;;;;6.68;0.50;;;10.40;99.90;;;;;;5033660;28;20387;-81
2023/12/26 06:10:29;;;;;;;11.63;0.70;;;10.40;99.90;;;;;;5032047;28;20077;-81
2023/12/26 06:12:55;;;;;;;9.10;0.68;;;10.40;99.90;;;;;;5033493;28;20026;-81
2023/12/26 06:15:20;;;;;;;15.10;1.17;;;10.40;99.90;;;;;;5016197;28;20040;-82
2023/12/26 06:17:46;;;;;;;10.00;0.90;;;10.40;99.90;;;;;;5016137;28;20029;-81
2023/12/26 06:20:14;;;;;;;10.93;0.85;;;10.30;99.90;;;;;;5033248;28;20084;-81
2023/12/26 06:22:40;;;;;;;5.55;0.47;;;10.30;99.90;;;;;;5032246;28;20025;-82
2023/12/26 06:25:05;;;;;;;8.88;0.93;;;10.30;99.90;;;;;;5032039;28;20071;-81
2023/12/26 06:27:31;;;;;;;5.63;0.65;;;10.30;99.90;;;;;;5015814;28;20463;-81
2023/12/26 06:29:57;;;;;;;6.20;0.85;;;10.30;99.90;;;;;;5015587;28;20037;-81
2023/12/26 06:32:22;;;;;;;7.43;0.70;;;10.30;99.90;;;;;;5031761;28;20124;-74
2023/12/26 06:34:48;;;;;;;8.15;0.63;;;10.30;99.90;;;;;;5033209;28;20029;-76
2023/12/26 06:37:14;;;;;;;8.50;0.90;;;10.30;99.90;;;;;;5032729;28;20033;-75
2023/12/26 06:39:40;;;;;;;13.43;0.90;;;10.30;99.90;;;;;;5033418;28;20065;-74
2023/12/26 06:42:05;;;;;;;11.90;1.05;;;10.30;99.90;;;;;;5032265;28;20033;-75
2023/12/26 06:44:31;;;;;;;9.00;1.05;;;10.20;99.90;;;;;;5031921;28;20033;-75
2023/12/26 06:46:57;;;;;;;11.45;0.82;;;10.20;99.90;;;;;;5015326;28;20072;-75
2023/12/26 06:49:22;;;;;;;11.93;0.70;;;10.20;99.90;;;;;;5031670;28;20037;-74
2023/12/26 06:51:48;;;;;;;8.23;1.10;;;10.20;99.90;;;;;;5015236;28;20025;-74
2023/12/26 06:54:14;;;;;;;8.32;1.13;;;10.10;99.90;;;;;;5032529;28;20370;-74
2023/12/26 06:56:39;;;;;;;16.05;1.83;;;10.20;99.90;;;;;;5033051;28;20321;-74
2023/12/26 06:59:05;;;;;;;8.43;1.05;;;10.10;99.90;;;;;;5031451;28;20387;-75
2023/12/26 07:01:33;;;;;;;9.93;0.88;;;10.10;99.90;;;;;;5031413;28;20120;-74
2023/12/26 07:04:00;;;;;;;9.95;1.10;;;10.10;99.90;;;;;;5031487;28;20025;-74
2023/12/26 07:06:27;;;;;;;6.45;0.60;;;10.10;99.90;;;;;;5032751;28;20037;-74
2023/12/26 07:08:52;;;;;;;12.45;0.98;;;10.10;99.90;;;;;;5032688;28;20387;-75
2023/12/26 07:11:18;;;;;;;10.85;0.82;;;10.10;99.90;;;;;;5032701;28;20030;-78
2023/12/26 07:13:44;;;;;;;9.10;0.68;;;10.00;99.90;;;;;;5032553;28;20087;-79
2023/12/26 07:16:09;;;;;;;5.40;0.40;;;10.00;99.90;;;;;;5032614;28;20032;-79
2023/12/26 07:18:35;;;;;;;6.43;0.73;;;10.00;99.90;;;;;;5032759;28;20526;-79
2023/12/26 07:21:02;;;;;;;8.00;0.88;;;10.00;99.90;;;;;;5017224;28;20040;-78
2023/12/26 07:23:28;;;;;;;9.13;0.40;;;10.00;99.90;;;;;;5036790;28;20095;-79
2023/12/26 07:25:53;;;;;;;12.95;0.90;;;9.90;99.90;;;;;;5020291;28;20058;-78
2023/12/26 07:28:19;;;;;;;10.25;1.13;;;9.90;99.90;;;;;;5036484;28;20109;-79
2023/12/26 07:30:45;;;;;;;11.68;0.80;;;9.90;99.90;;;;;;5019698;28;20033;-79
2023/12/26 07:33:11;;;;;;;12.63;1.13;;;9.90;99.90;;;;;;5020399;28;20034;-78
2023/12/26 07:35:38;;;;;;;9.48;1.10;;;9.90;99.90;;;;;;5019876;28;20029;-80
2023/12/26 07:38:04;;;;;;;9.45;0.80;;;9.90;99.90;;;;;;5019194;28;20124;-78
2023/12/26 07:40:32;;;;;;;11.48;1.50;;;9.80;99.90;;;;;;5037710;28;20022;-80
2023/12/26 07:42:57;;;;;;;6.65;0.95;;;9.80;99.90;;;;;;5038257;28;20037;-75
2023/12/26 07:45:25;;;;;;;9.57;0.82;;;9.80;99.90;;;;;;5036661;28;20033;-76
2023/12/26 07:47:54;;;;;;;5.75;0.60;;;9.80;99.90;;;;;;5036552;28;20041;-76
2023/12/26 07:50:22;;;;;;;8.18;1.15;;;9.80;99.90;;;;;;5036662;28;20107;-75
2023/12/26 07:52:47;;;;;;;9.82;0.80;;;9.80;99.90;;;;;;5018693;28;20061;-77
2023/12/26 07:55:13;;;;;;;11.75;0.73;;;9.80;99.90;;;;;;5036330;28;20061;-77
2023/12/26 07:57:39;;;;;;;8.52;0.85;;;9.90;99.90;;;;;;5034694;28;20091;-76
2023/12/26 08:00:05;;;;;;;15.63;1.98;;;9.80;99.90;;;;;;5017997;28;20045;-76
2023/12/26 08:02:31;;;;;;;8.27;1.15;;;9.80;99.90;;;;;;5034708;28;20060;-75
2023/12/26 08:04:57;;;;;;;16.08;1.00;;;9.80;99.90;;;;;;5018450;28;20045;-76
2023/12/26 08:07:22;;;;;;;12.68;1.30;;;9.80;99.90;;;;;;5018104;28;20125;-76
2023/12/26 08:09:48;;;;;;;11.27;0.95;;;9.80;99.90;;;;;;5035561;28;20057;-76
2023/12/26 08:12:14;;;;;;;10.25;0.77;;;9.80;99.90;;;;;;5034620;28;20491;-75
2023/12/26 08:14:39;;;;;;;8.20;0.93;;;9.80;99.90;;;;;;5036267;28;20475;-75
2023/12/26 08:17:05;;;;;;;8.63;1.13;;;9.70;99.90;;;;;;5017983;28;20030;-75
2023/12/26 08:19:31;;;;;;;6.88;1.35;;;9.80;99.90;;;;;;5035916;28;20034;-74
2023/12/26 08:21:57;;;;;;;9.10;1.25;;;9.80;99.90;;;;;;5034442;28;20053;-76
2023/12/26 08:24:23;;;;;;;5.97;0.80;;;9.80;99.90;;;;;;5034438;28;20462;-75
2023/12/26 08:26:56;;;;;;;9.88;1.10;;;9.90;99.90;;;;;;5034801;28;20029;-79
2023/12/26 08:29:21;;;;;;;8.57;1.20;;;9.90;99.90;;;;;;5035056;28;20429;-79
2023/12/26 08:31:47;;;;;;;6.53;0.80;;;9.90;99.90;;;;;;5034778;28;20038;-80
2023/12/26 08:34:13;;;;;;;12.63;0.82;;;9.90;99.90;;;;;;5001347;28;20459;-79
2023/12/26 08:36:39;;;;;;;5.53;0.60;;;9.90;99.90;;;;;;5035633;28;20091;-78
2023/12/26 08:39:05;;;;;;;8.90;0.60;;;10.00;99.90;;;;;;5037739;28;20034;-76
2023/12/26 08:41:30;;;;;;;8.18;0.85;;;10.00;99.90;;;;;;5020310;28;20029;-72
2023/12/26 08:43:56;;;;;;;7.88;1.20;;;10.10;99.90;;;;;;5035944;28;20084;-75
2023/12/26 08:46:22;;;;;;;5.25;0.60;;;10.10;99.90;;;;;;5034783;28;20037;-76
2023/12/26 08:48:48;;;;;;;9.43;0.77;;;10.10;99.90;;;;;;5034510;28;20582;-75
2023/12/26 08:51:13;;;;;;;7.72;0.77;;;10.10;99.90;;;;;;5018098;28;20038;-75
2023/12/26 08:53:39;;;;;;;6.28;0.73;;;10.10;99.90;;;;;;5035317;28;20029;-75
2023/12/26 08:56:05;;;;;;;9.48;0.70;;;10.10;99.90;;;;;;5035268;28;20432;-74
2023/12/26 08:58:35;;;;;;;6.90;0.60;;;10.20;99.90;;;;;;5017349;28;20083;-79
2023/12/26 09:01:01;;;;;;;9.70;1.00;;;10.20;99.90;;;;;;5017615;28;20034;-77
2023/12/26 09:03:27;;;;;;;7.93;1.30;;;10.20;99.90;;;;;;5034670;28;20052;-75
2023/12/26 09:05:53;;;;;;;10.40;0.95;;;10.20;99.90;;;;;;5034988;28;20037;-75
2023/12/26 09:08:19;;;;;;;9.63;0.77;;;10.20;99.90;;;;;;5034895;28;20157;-76
2023/12/26 09:10:45;;;;;;;12.38;1.55;;;10.30;99.90;;;;;;5017275;28;20132;-76
2023/12/26 09:13:11;;;;;;;10.93;1.30;;;10.40;99.90;;;;;;5034630;28;20048;-80
2023/12/26 09:15:37;;;;;;;10.02;0.95;;;10.40;99.90;;;;;;5034821;28;20021;-80
2023/12/26 09:18:03;;;;;;;11.32;1.00;;;10.50;99.90;;;;;;5033858;28;20041;-80
2023/12/26 09:20:29;;;;;;;16.50;1.42;;;10.40;99.90;;;;;;5034132;28;20049;-79
2023/12/26 09:22:54;;;;;;;7.75;0.60;;;10.40;99.90;;;;;;5036491;28;20085;-82
2023/12/26 09:25:20;;;;;;;8.38;1.27;;;10.30;99.90;;;;;;5036939;28;20428;-80
2023/12/26 09:27:46;;;;;;;6.90;0.65;;;10.30;99.90;;;;;;5038415;28;20113;-80
2023/12/26 09:30:12;;;;;;;9.32;0.98;;;10.30;99.90;;;;;;5039946;28;20065;-81
2023/12/26 09:32:38;;;;;;;10.82;0.73;;;10.20;99.90;;;;;;5034362;28;20464;-79
2023/12/26 09:35:04;;;;;;;14.73;1.40;;;10.20;99.90;;;;;;5034792;28;20035;-83
2023/12/26 09:37:34;;;;;;;12.50;1.30;;;10.20;99.90;;;;;;5017046;28;20037;-81
2023/12/26 09:40:01;;;;;;;13.05;2.53;;;10.20;99.90;;;;;;5019645;28;20033;-81
2023/12/26 09:42:27;;;;;;;15.52;1.52;;;10.20;99.90;;;;;;5002272;28;20124;-80
2023/12/26 09:44:53;;;;;;;15.40;2.25;;;10.30;99.90;;;;;;5038153;28;20029;-81
2023/12/26 09:47:21;;;;;;;10.35;1.52;;;10.30;99.90;;;;;;5024072;28;20033;-81
2023/12/26 09:49:47;;;;;;;13.75;1.50;;;10.30;99.90;;;;;;5035469;28;20088;-75
2023/12/26 09:52:13;;;;;;;12.23;1.85;;;10.40;99.90;;;;;;5034196;28;20498;-79
2023/12/26 09:54:44;;;;;;;11.38;1.17;;;10.40;99.90;;;;;;5033223;28;20045;-79
2023/12/26 09:57:10;;;;;;;16.92;1.45;;;10.40;99.90;;;;;;5033856;28;20025;-80
2023/12/26 09:59:37;;;;;;;10.98;1.17;;;10.50;99.90;;;;;;5036584;28;20080;-80
2023/12/26 10:02:04;;;;;;;12.95;1.40;;;10.50;99.90;;;;;;5036321;28;20045;-79
2023/12/26 10:04:30;;;;;;;13.63;0.90;;;10.50;99.90;;;;;;5037667;28;20108;-77
2023/12/26 10:06:56;;;;;;;9.63;1.88;;;10.60;99.90;;;;;;5034778;28;20057;-81
2023/12/26 10:09:22;;;;;;;10.50;1.65;;;10.60;99.90;;;;;;5017666;28;20128;-76
2023/12/26 10:11:51;;;;;;;11.35;1.13;;;10.70;99.90;;;;;;5033453;28;20459;-79
2023/12/26 10:14:30;;;;;;;13.43;1.58;;;10.70;99.90;;;;;;5033409;28;20033;-80
2023/12/26 10:16:56;;;;;;;13.35;1.52;;;10.70;99.90;;;;;;5035913;28;20036;-79
2023/12/26 10:19:28;;;;;;;15.18;1.70;;;10.80;99.90;;;;;;5003329;28;20037;-80
2023/12/26 10:21:54;;;;;;;15.30;1.20;;;10.80;99.90;;;;;;5019493;28;20475;-80
2023/12/26 10:24:20;;;;;;;11.15;1.20;;;10.80;99.90;;;;;;5034517;28;20104;-80
2023/12/26 10:26:47;;;;;;;9.70;1.50;;;10.80;99.90;;;;;;5035858;28;20036;-79
2023/12/26 10:29:16;;;;;;;16.42;1.75;;;10.80;99.90;;;;;;5035085;28;20479;-79
2023/12/26 10:31:43;;;;;;;11.13;1.40;;;10.90;99.90;;;;;;5019644;28;20037;-79
2023/12/26 10:34:17;;;;;;;13.35;1.35;;;11.00;99.90;;;;;;5037161;28;20053;-80
2023/12/26 10:36:48;;;;;;;12.57;1.25;;;11.10;99.90;;;;;;5021840;28;20033;-80
2023/12/26 10:39:13;;;;;;;11.45;1.13;;;11.00;99.90;;;;;;5036303;28;20025;-79
2023/12/26 10:41:47;;;;;;;13.38;2.10;;;11.10;99.90;;;;;;5036340;28;20029;-79
2023/12/26 10:44:15;;;;;;;10.38;1.60;;;11.10;99.90;;;;;;5018966;28;20041;-80
2023/12/26 10:46:45;;;;;;;15.20;1.50;;;11.00;99.90;;;;;;5033922;28;20364;-79
2023/12/26 10:49:17;;;;;;;11.65;1.50;;;11.10;99.90;;;;;;5035375;28;20029;-79
2023/12/26 10:51:43;;;;;;;11.18;1.50;;;11.10;99.90;;;;;;5034194;28;20033;-80
2023/12/26 10:54:19;;;;;;;14.68;1.50;;;11.20;99.90;;;;;;5033004;28;20037;-79
2023/12/26 10:56:47;;;;;;;13.32;1.30;;;11.10;99.90;;;;;;5032751;28;20521;-79
2023/12/26 13:51:36;;;;;;;10.45;0.68;;;10.50;99.60;;;;;;5037780;28;20111;-79
2023/12/26 13:54:40;;;;;;;6.65;0.80;;;10.50;99.50;;;;;;5033348;28;20040;-78
2023/12/26 13:57:43;;;;;;;10.30;0.57;;;10.50;99.40;;;;;;5035476;28;20049;-78
2023/12/26 14:00:46;;;;;;;7.50;0.82;;;10.50;99.30;;;;;;5034334;28;20064;-78
2023/12/26 14:03:50;;;;;;;8.98;0.95;;;10.50;99.50;;;;;;5032664;28;20479;-79
2023/12/26 14:06:53;;;;;;;10.05;0.90;;;10.60;99.50;;;;;;5032951;28;20060;-78
2023/12/26 14:09:56;;;;;;;7.45;0.98;;;10.60;99.00;;;;;;5032374;28;20107;-78
2023/12/26 14:13:00;;;;;;;5.82;1.38;;;10.60;99.00;;;;;;5034661;28;20033;-80
2023/12/26 14:16:04;;;;;;;5.28;0.73;;;10.60;98.90;;;;;;5035090;28;20025;-79
2023/12/26 14:18:48;;;;;;;;;;;10.60;98.80;;;;;;5034681;28;20029;-78
2023/12/26 14:21:51;;;;;;;4.03;0.60;;;10.60;98.70;;;;;;5032563;28;19905;-79
2023/12/26 14:24:54;;;;;;;6.60;0.68;;;10.60;98.70;;;;;;5033830;28;20025;-78
2023/12/26 14:27:58;;;;;;;6.93;0.73;;;10.60;98.70;;;;;;5033869;28;20344;-79
2023/12/26 14:31:01;;;;;;;6.65;0.82;;;10.60;98.70;;;;;;5032212;28;20037;-79
2023/12/26 14:34:04;;;;;;;4.68;0.57;;;10.60;98.60;;;;;;5034106;28;20332;-79
2023/12/26 14:37:08;;;;;;;7.68;1.17;;;10.60;98.60;;;;;;5034240;28;20026;-79
2023/12/26 14:40:11;;;;;;;5.65;0.90;;;10.60;98.60;;;;;;5033758;28;20052;-79
2023/12/26 14:43:14;;;;;;;6.75;0.75;;;10.60;98.50;;;;;;5032976;28;20369;-79
2023/12/26 14:46:17;;;;;;;7.80;1.33;;;10.60;98.70;;;;;;5034413;28;20387;-79
2023/12/26 14:49:21;;;;;;;12.27;1.40;;;10.50;98.50;;;;;;5032594;28;20030;-78
2023/12/26 14:52:24;;;;;;;6.55;0.93;;;10.60;98.60;;;;;;5033193;28;20252;-79
2023/12/26 14:55:27;;;;;;;7.82;1.10;;;10.50;98.60;;;;;;5031961;28;20052;-79
2023/12/26 14:58:30;;;;;;;8.82;0.82;;;10.50;98.80;;;;;;5033239;28;20053;-79
2023/12/26 15:01:33;;;;;;;7.38;0.73;;;10.40;98.90;;;;;;5033167;28;20025;-79
2023/12/26 15:03:59;;;;;;;8.80;1.08;;;10.40;98.90;;;;;;5033514;28;20036;-79
2023/12/26 15:06:24;;;;;;;7.18;0.68;;;10.40;99.00;;;;;;5015801;28;20361;-79
2023/12/26 15:08:50;;;;;;;5.80;0.70;;;10.40;99.20;;;;;;5032287;28;20030;-77
2023/12/26 15:11:16;;;;;;;10.75;1.38;;;10.40;99.40;;;;;;5031106;28;20034;-78
2023/12/26 15:13:42;;;;;;;6.32;1.20;;;10.40;99.50;;;;;;5032705;28;20029;-79
2023/12/26 15:16:19;;;;;;;5.30;0.90;;;10.40;99.60;;;;;;5014929;28;20037;-79
2023/12/26 15:18:46;;;;;;;8.07;1.15;;;10.40;99.70;;;;;;5032364;28;20033;-78
2023/12/26 15:21:12;;;;;;;8.73;0.70;;;10.40;99.90;;;;;;5031223;28;20030;-78
2023/12/26 15:23:38;;;;;;;7.85;1.08;;;10.30;99.60;;;;;;5031344;28;20033;-79
2023/12/26 15:26:13;;;;;;;8.13;1.05;;;10.40;99.70;;;;;;5031055;28;20092;-78
2023/12/26 15:28:43;;;;;;;7.93;0.93;;;10.40;99.70;;;;;;5032612;28;20025;-79
2023/12/26 15:31:18;;;;;;;6.15;1.48;;;10.40;99.70;;;;;;5031519;28;20391;-77
2023/12/26 15:33:49;;;;;;;8.35;1.02;;;10.40;99.60;;;;;;5031393;28;20383;-78
2023/12/26 15:36:19;;;;;;;5.30;1.27;;;10.40;99.60;;;;;;5030889;28;20345;-78
2023/12/26 15:38:46;;;;;;;5.70;0.98;;;10.40;99.70;;;;;;5033069;28;20576;-79
2023/12/26 15:41:12;;;;;;;4.72;1.35;;;10.40;99.70;;;;;;5036282;28;20040;-81
2023/12/26 15:43:38;;;;;;;8.23;1.13;;;10.40;99.90;;;;;;5020124;28;20033;-79
2023/12/26 15:46:13;;;;;;;5.20;0.70;;;10.40;99.70;;;;;;5040365;28;20113;-79
2023/12/26 15:48:42;;;;;;;8.63;0.98;;;10.40;99.90;;;;;;5024929;28;20033;-78